aviador You're here:

KEUG Decoded Metar

EUGENE in OR, USA
Report Time2017-06-27 21:54:00
UTC Time2017-06-27 22:34:33
Flight Rules vfr VFR
Wind350° at 05 kt
W.Decomp.*RWY 34: 5.0 kt HW 0.5 kt LCW
W.Rank350° ranks 10
Current wind is below 350° avg. (6.6)
Visibility9999 m
Phenomena:N/A
Clouds:Broken 031 Hf
Broken 200 Hf
Expected CloudBase > 3,200 ft AGL from Temp-Dew spread
Ceiling3,100 ft
Temp20°C (ISA +6)
Dew Point12°C (60% RH)
AAT18.8°C
QNH1017 hPa
Density Alt1,099 ft
Elevation374 ft
Report Wrong Elevation
Raw Report
KEUG 272154Z 35005KT 10SM BKN031 BKN200 20/12 A3002 RMK AO2 SLP166
T02000122=

Extra information for KEUG:More info

Metar Taf Metar & Taf Last 4 Metars F.Rules Stats Wind Profile Meteogram Temp Stats Airport Information Weather charts Add Link Nearby VenuesMetar ALERT Operation Metar Decoded Social comments

AIRNAV info for KEUG